AirNav   Air Wisconsin pilot careers
 
 739 users online  

35C Wells Airport
Rockford, Michigan, USA

GOING TO ROCKFORD?


FAA INFORMATION EFFECTIVE 01 FEBRUARY 2018

Location

FAA Identifier: 35C
Lat/Long: 43-07-42.1010N / 085-30-19.1060W
43-07.701683N / 085-30.318433W
43.1283614 / -85.5053072
(estimated)
Elevation: 890 ft. / 271 m (estimated)
Variation: 04W (1985)
From city: 3 miles NE of ROCKFORD, MI
Time zone: UTC -5 (UTC -4 during Daylight Saving Time)
Zip code: 49341

Airport Operations

Airport use: Open to the public
Activation date: 06/1965
Control tower: no
ARTCC: CHICAGO CENTER
FSS: LANSING FLIGHT SERVICE STATION
NOTAMs facility: LAN (NOTAM-D service available)
Attendance: MAY-NOV DAYLIGHT HOURS
OWNER LIVES ON ARPT.
Wind indicator: yes
Segmented circle: yes

Airport Communications

CTAF: 122.9
WX AWOS-A at 8D4 (8 nm W): 132.95 (616-887-2039)
WX ASOS at GRR (15 nm S): 118.725 (616-575-1953)

Nearby radio navigation aids

VOR radial/distance  VOR name  Freq  Var
VIOr003/20.5VICTORY VOR/DME115.9504W
MKGr097/23.5MUSKEGON VORTAC115.2001W
HICr162/28.3WHITE CLOUD VOR/DME117.6001W

Airport Services

Parking: tiedowns
Airframe service: NONE
Powerplant service: NONE
Bottled oxygen: NONE
Bulk oxygen: NONE

Runway Information

Runway 18/36

Dimensions: 2200 x 100 ft. / 671 x 30 m
Surface: turf, in good condition
RWY SOFT WHEN WET.
Runway edge markings: RY 18 /36 & DSPLD THLD MKD WITH 3 FT YELLOW CONES.
RUNWAY 18  RUNWAY 36
Latitude: 43-07.886000N43-07.517167N
Longitude: 085-30.318333W085-30.318333W
Elevation: 890.0 ft.890.0 ft.
Traffic pattern: leftleft
Displaced threshold: no400 ft.
Runway end identifier lights: nono
Obstructions: 40 ft. tree, 102 ft. left of centerline
APCH RATIO 25:1 STRAIGHT OUT.
50 ft. tree, 90 ft. left and right of centerline
APCH RATIO 0:1 AT DSPLCD THLD BASED ON 60 FT TREES, 90R/L, 0 FT FM DSPLD THLD, 20:1 STRAIGHT OUT OVR 39 FT TREES, 780 FT DSTC.

Airport Ownership and Management from official FAA records

Ownership: Privately-owned
Owner: TERRY FINGER
6530 11 MILE ROAD
ROCKFORD, MI 49341
Phone 616-884-0150
Manager: TERRY FINGER
6530 11 MILE RD
ROCKFORD, MI 49341
Phone 616-901-5269

Airport Operational Statistics

Aircraft based on the field: 5
Single engine airplanes: 4
Gliders airplanes: 1
    
Aircraft operations: avg 33/month *
50% transient general aviation
50% local general aviation
* for 12-month period ending 31 December 2014

Additional Remarks

ARPT CLSD DEC TO APR.
DEER ON AND INVOF ARPT.

Instrument Procedures

There are no published instrument procedures at 35C.

Some nearby airports with instrument procedures:

8D4 - Paul C Miller-Sparta Airport (8 nm W)
6D6 - Greenville Municipal Airport (11 nm E)
KGRR - Gerald R Ford International Airport (15 nm S)
13C - Lakeview Airport-Griffith Field (22 nm NE)
Y70 - Ionia County Airport (23 nm SE)
 
Loc | Ops | Rwys | IFR | FBO | Links
Com | Nav | Svcs | Stats | Notes

AirNav Hotels Sweepstakes
 
Area around 35C (Wells Airport)
 
Road maps at: MapQuest Bing Google
 
Aerial photo
No photo
 
Sectional chart

 
Airport distance calculator
Flying to Wells Airport? Find the distance to fly.

From to 35C

Sunrise and sunset
Times for 17-Feb-2018
 Local
(UTC-5)
 Zulu
(UTC)
Morning civil twilight07:0912:09
Sunrise07:3812:38
Sunset18:1423:14
Evening civil twilight18:4323:43

Current date and time
Zulu (UTC)  18-Feb-2018 01:35:41
Local (UTC-5)  17-Feb-2018 20:35:41
 
METAR
KGRR 
15nm S 
180109Z 29005KT 2 1/2SM -SN BKN025 OVC035 M01/M04 A2998 RMK AO2 P0000 T10111044
KY70 
23nm SE 
180115Z AUTO 28003KT 2 1/2SM -SN SCT008 BKN018 OVC025 M01/M02 A2996 RMK AO2 T10151020
KFFX 
28nm NW 
180116Z AUTO 22004KT 1 3/4SM -SN OVC007 M01/M03 A2995 RMK AO2 T10151035
TAF
KGRR 
15nm S 
172252Z 1723/1818 24010KT 2SM -SN BR OVC015 FM180300 26009KT P6SM OVC015 FM180900 25007KT P6SM BKN040 FM181200 18008KT P6SM BKN150
NOTAMs
Click for the latest NOTAMs
NOTAMs are issued by the DoD/FAA and will open in a separate window not controlled by AirNav.

 

 
 

Would you like to see your business listed on this page?

 If your business provides an interesting product or service to pilots, flight crews, aircraft, or users of the Wells Airport, you should consider listing it here.  To start the listing process, click on the button below
 
Add a business
 

Other Pages about Wells Airport

Page from the Michigan Airport Directory (PDF)
 
Update a link
 
Copyright © AirNav, LLC. All rights reserved. Privacy Policy  Contact